sensor_id;sensor_type;location;lat;lon;timestamp;temperature;humidity
15257;DHT22;7731;50.720;6.912;2024-03-23T00:55:19;8.90;99.90
15257;DHT22;7731;50.720;6.912;2024-03-23T00:57:45;8.90;99.90
15257;DHT22;7731;50.720;6.912;2024-03-23T01:00:13;8.80;99.90
15257;DHT22;7731;50.720;6.912;2024-03-23T01:02:41;8.70;99.90
15257;DHT22;7731;50.720;6.912;2024-03-23T01:05:08;8.70;99.90
15257;DHT22;7731;50.720;6.912;2024-03-23T01:07:35;8.60;99.90
15257;DHT22;7731;50.720;6.912;2024-03-23T01:10:08;8.60;99.90
15257;DHT22;7731;50.720;6.912;2024-03-23T01:12:35;8.60;99.90
15257;DHT22;7731;50.720;6.912;2024-03-23T01:15:02;8.60;99.90
15257;DHT22;7731;50.720;6.912;2024-03-23T01:17:29;8.50;99.90
15257;DHT22;7731;50.720;6.912;2024-03-23T01:19:55;8.60;99.90
15257;DHT22;7731;50.720;6.912;2024-03-23T01:22:22;8.60;99.90
15257;DHT22;7731;50.720;6.912;2024-03-23T01:24:49;8.70;99.90
15257;DHT22;7731;50.720;6.912;2024-03-23T01:27:19;8.80;99.90
15257;DHT22;7731;50.720;6.912;2024-03-23T01:29:46;8.70;99.90
15257;DHT22;7731;50.720;6.912;2024-03-23T01:32:12;8.60;99.90
15257;DHT22;7731;50.720;6.912;2024-03-23T01:34:39;8.70;99.90
15257;DHT22;7731;50.720;6.912;2024-03-23T01:37:05;8.70;99.90
15257;DHT22;7731;50.720;6.912;2024-03-23T01:39:32;8.60;99.90
15257;DHT22;7731;50.720;6.912;2024-03-23T01:41:59;8.50;99.90
15257;DHT22;7731;50.720;6.912;2024-03-23T01:44:28;8.50;99.90
15257;DHT22;7731;50.720;6.912;2024-03-23T01:46:55;8.30;99.90
15257;DHT22;7731;50.720;6.912;2024-03-23T01:49:21;8.30;99.90
15257;DHT22;7731;50.720;6.912;2024-03-23T01:51:48;8.50;99.90
15257;DHT22;7731;50.720;6.912;2024-03-23T01:54:15;8.70;99.90
15257;DHT22;7731;50.720;6.912;2024-03-23T01:56:41;8.70;99.90
15257;DHT22;7731;50.720;6.912;2024-03-23T01:59:08;8.60;99.90
15257;DHT22;7731;50.720;6.912;2024-03-23T02:01:37;8.60;99.90
15257;DHT22;7731;50.720;6.912;2024-03-23T02:04:04;8.50;99.90
15257;DHT22;7731;50.720;6.912;2024-03-23T02:06:33;8.50;99.90
15257;DHT22;7731;50.720;6.912;2024-03-23T02:09:00;8.50;99.90
15257;DHT22;7731;50.720;6.912;2024-03-23T02:11:29;8.50;99.90
15257;DHT22;7731;50.720;6.912;2024-03-23T02:13:56;8.50;99.90
15257;DHT22;7731;50.720;6.912;2024-03-23T02:16:23;8.30;99.90
15257;DHT22;7731;50.720;6.912;2024-03-23T02:18:52;8.10;99.90
15257;DHT22;7731;50.720;6.912;2024-03-23T02:21:18;8.20;99.90
15257;DHT22;7731;50.720;6.912;2024-03-23T02:23:49;8.20;99.90
15257;DHT22;7731;50.720;6.912;2024-03-23T02:26:15;8.10;99.90
15257;DHT22;7731;50.720;6.912;2024-03-23T02:28:43;8.00;99.90
15257;DHT22;7731;50.720;6.912;2024-03-23T02:31:11;7.90;99.90
15257;DHT22;7731;50.720;6.912;2024-03-23T02:33:38;7.90;99.90
15257;DHT22;7731;50.720;6.912;2024-03-23T02:36:04;7.90;99.90
15257;DHT22;7731;50.720;6.912;2024-03-23T02:38:31;7.90;99.90
15257;DHT22;7731;50.720;6.912;2024-03-23T02:41:04;7.90;99.90
15257;DHT22;7731;50.720;6.912;2024-03-23T02:43:31;7.90;99.90
15257;DHT22;7731;50.720;6.912;2024-03-23T02:45:58;7.70;99.90
15257;DHT22;7731;50.720;6.912;2024-03-23T02:48:24;7.40;99.90
15257;DHT22;7731;50.720;6.912;2024-03-23T02:50:51;7.20;99.90
15257;DHT22;7731;50.720;6.912;2024-03-23T02:53:18;7.30;99.90
15257;DHT22;7731;50.720;6.912;2024-03-23T02:55:45;7.20;99.90
15257;DHT22;7731;50.720;6.912;2024-03-23T02:58:16;7.20;99.90
15257;DHT22;7731;50.720;6.912;2024-03-23T03:00:42;6.90;99.90
15257;DHT22;7731;50.720;6.912;2024-03-23T03:03:09;6.80;99.90
15257;DHT22;7731;50.720;6.912;2024-03-23T03:05:35;6.70;99.90
15257;DHT22;7731;50.720;6.912;2024-03-23T03:08:02;6.70;99.90
15257;DHT22;7731;50.720;6.912;2024-03-23T03:10:29;6.60;99.90
15257;DHT22;7731;50.720;6.912;2024-03-23T03:12:55;6.50;99.90
15257;DHT22;7731;50.720;6.912;2024-03-23T03:15:24;6.60;99.90
15257;DHT22;7731;50.720;6.912;2024-03-23T03:17:51;6.50;99.90
15257;DHT22;7731;50.720;6.912;2024-03-23T03:20:18;6.60;99.90
15257;DHT22;7731;50.720;6.912;2024-03-23T03:22:44;6.70;99.90
15257;DHT22;7731;50.720;6.912;2024-03-23T03:25:11;6.70;99.90
15257;DHT22;7731;50.720;6.912;2024-03-23T03:27:37;6.60;99.90
15257;DHT22;7731;50.720;6.912;2024-03-23T03:30:05;6.70;99.90
15257;DHT22;7731;50.720;6.912;2024-03-23T03:32:35;6.60;99.90
15257;DHT22;7731;50.720;6.912;2024-03-23T03:35:01;6.60;99.90
15257;DHT22;7731;50.720;6.912;2024-03-23T03:37:28;6.60;99.90
15257;DHT22;7731;50.720;6.912;2024-03-23T03:39:55;6.50;99.90
15257;DHT22;7731;50.720;6.912;2024-03-23T03:42:21;6.70;99.90
15257;DHT22;7731;50.720;6.912;2024-03-23T03:44:48;6.80;99.90
15257;DHT22;7731;50.720;6.912;2024-03-23T03:47:14;6.80;99.90
15257;DHT22;7731;50.720;6.912;2024-03-23T03:49:43;6.80;99.90
15257;DHT22;7731;50.720;6.912;2024-03-23T03:52:10;6.80;99.90
15257;DHT22;7731;50.720;6.912;2024-03-23T03:54:37;6.80;99.90
15257;DHT22;7731;50.720;6.912;2024-03-23T03:57:03;6.70;99.90
15257;DHT22;7731;50.720;6.912;2024-03-23T03:59:30;6.60;99.90
15257;DHT22;7731;50.720;6.912;2024-03-23T04:01:59;6.50;99.90
15257;DHT22;7731;50.720;6.912;2024-03-23T04:04:26;6.40;99.90
15257;DHT22;7731;50.720;6.912;2024-03-23T04:07:00;6.50;99.90
15257;DHT22;7731;50.720;6.912;2024-03-23T04:09:28;6.50;99.90
15257;DHT22;7731;50.720;6.912;2024-03-23T04:11:54;6.50;99.90
15257;DHT22;7731;50.720;6.912;2024-03-23T04:14:21;6.50;99.90
15257;DHT22;7731;50.720;6.912;2024-03-23T04:16:47;6.70;99.90
15257;DHT22;7731;50.720;6.912;2024-03-23T04:19:14;6.70;99.90
15257;DHT22;7731;50.720;6.912;2024-03-23T04:21:40;6.70;99.90
15257;DHT22;7731;50.720;6.912;2024-03-23T04:24:10;6.50;99.90
15257;DHT22;7731;50.720;6.912;2024-03-23T04:26:41;6.50;99.90
15257;DHT22;7731;50.720;6.912;2024-03-23T04:29:07;6.40;99.90
15257;DHT22;7731;50.720;6.912;2024-03-23T04:31:34;6.40;99.90
15257;DHT22;7731;50.720;6.912;2024-03-23T04:34:01;6.40;99.90
15257;DHT22;7731;50.720;6.912;2024-03-23T04:36:27;6.30;99.90
15257;DHT22;7731;50.720;6.912;2024-03-23T04:38:54;6.20;99.90
15257;DHT22;7731;50.720;6.912;2024-03-23T04:41:23;6.20;99.90
15257;DHT22;7731;50.720;6.912;2024-03-23T04:43:50;6.30;99.90
15257;DHT22;7731;50.720;6.912;2024-03-23T04:46:16;6.30;99.90
15257;DHT22;7731;50.720;6.912;2024-03-23T04:48:43;6.50;99.90
15257;DHT22;7731;50.720;6.912;2024-03-23T04:51:10;6.70;99.90
15257;DHT22;7731;50.720;6.912;2024-03-23T04:53:36;6.70;99.90
15257;DHT22;7731;50.720;6.912;2024-03-23T04:56:04;6.60;99.90
15257;DHT22;7731;50.720;6.912;2024-03-23T04:58:33;6.60;99.90
15257;DHT22;7731;50.720;6.912;2024-03-23T05:01:00;6.60;99.90
15257;DHT22;7731;50.720;6.912;2024-03-23T05:03:26;6.80;99.90
15257;DHT22;7731;50.720;6.912;2024-03-23T05:05:53;6.80;99.90
15257;DHT22;7731;50.720;6.912;2024-03-23T05:08:20;6.70;99.90
15257;DHT22;7731;50.720;6.912;2024-03-23T05:10:46;6.70;99.90
15257;DHT22;7731;50.720;6.912;2024-03-23T05:13:13;6.70;99.90
15257;DHT22;7731;50.720;6.912;2024-03-23T05:15:42;6.60;99.90
15257;DHT22;7731;50.720;6.912;2024-03-23T05:18:08;6.50;99.90
15257;DHT22;7731;50.720;6.912;2024-03-23T05:20:35;6.50;99.90
15257;DHT22;7731;50.720;6.912;2024-03-23T05:23:01;6.60;99.90
15257;DHT22;7731;50.720;6.912;2024-03-23T05:25:28;6.60;99.90
15257;DHT22;7731;50.720;6.912;2024-03-23T05:27:55;6.60;99.90
15257;DHT22;7731;50.720;6.912;2024-03-23T05:30:21;6.50;99.90
15257;DHT22;7731;50.720;6.912;2024-03-23T05:32:50;6.60;99.90
15257;DHT22;7731;50.720;6.912;2024-03-23T05:35:17;6.80;99.90
15257;DHT22;7731;50.720;6.912;2024-03-23T05:37:43;6.70;99.90
15257;DHT22;7731;50.720;6.912;2024-03-23T05:40:13;6.80;99.90
15257;DHT22;7731;50.720;6.912;2024-03-23T05:42:40;6.60;99.90
15257;DHT22;7731;50.720;6.912;2024-03-23T05:45:07;6.50;99.90
15257;DHT22;7731;50.720;6.912;2024-03-23T05:47:34;6.30;99.90
15257;DHT22;7731;50.720;6.912;2024-03-23T05:50:05;6.30;99.90
15257;DHT22;7731;50.720;6.912;2024-03-23T05:52:34;6.50;99.90
15257;DHT22;7731;50.720;6.912;2024-03-23T05:55:01;6.40;99.90
15257;DHT22;7731;50.720;6.912;2024-03-23T05:57:28;6.40;99.90
15257;DHT22;7731;50.720;6.912;2024-03-23T05:59:55;6.30;99.90
15257;DHT22;7731;50.720;6.912;2024-03-23T06:02:22;6.30;99.90
15257;DHT22;7731;50.720;6.912;2024-03-23T06:04:50;6.30;99.90
15257;DHT22;7731;50.720;6.912;2024-03-23T06:07:19;6.30;99.90
15257;DHT22;7731;50.720;6.912;2024-03-23T06:09:45;6.50;99.90
15257;DHT22;7731;50.720;6.912;2024-03-23T06:12:12;6.50;99.90
15257;DHT22;7731;50.720;6.912;2024-03-23T06:14:38;6.50;99.90
15257;DHT22;7731;50.720;6.912;2024-03-23T06:17:05;6.50;99.90
15257;DHT22;7731;50.720;6.912;2024-03-23T06:19:32;6.50;99.90
15257;DHT22;7731;50.720;6.912;2024-03-23T06:21:58;6.70;99.90
15257;DHT22;7731;50.720;6.912;2024-03-23T06:24:27;6.70;99.90
15257;DHT22;7731;50.720;6.912;2024-03-23T06:26:54;6.70;99.90
15257;DHT22;7731;50.720;6.912;2024-03-23T06:29:20;6.70;99.90
15257;DHT22;7731;50.720;6.912;2024-03-23T06:31:53;6.60;99.90
15257;DHT22;7731;50.720;6.912;2024-03-23T06:34:20;6.70;99.90
15257;DHT22;7731;50.720;6.912;2024-03-23T06:36:47;6.60;99.90
15257;DHT22;7731;50.720;6.912;2024-03-23T06:39:14;6.70;99.90
15257;DHT22;7731;50.720;6.912;2024-03-23T06:41:52;6.70;99.90
15257;DHT22;7731;50.720;6.912;2024-03-23T06:44:20;6.70;99.90
15257;DHT22;7731;50.720;6.912;2024-03-23T06:46:47;6.70;99.90
15257;DHT22;7731;50.720;6.912;2024-03-23T06:49:14;7.00;99.90
15257;DHT22;7731;50.720;6.912;2024-03-23T06:51:41;7.20;99.90
15257;DHT22;7731;50.720;6.912;2024-03-23T06:54:08;7.30;99.90
15257;DHT22;7731;50.720;6.912;2024-03-23T06:56:35;7.40;99.90
15257;DHT22;7731;50.720;6.912;2024-03-23T06:59:04;7.30;99.90
15257;DHT22;7731;50.720;6.912;2024-03-23T07:01:31;7.30;99.90
15257;DHT22;7731;50.720;6.912;2024-03-23T07:03:57;7.40;1.00
15257;DHT22;7731;50.720;6.912;2024-03-23T07:06:24;7.40;1.00
15257;DHT22;7731;50.720;6.912;2024-03-23T07:08:52;7.60;1.00
15257;DHT22;7731;50.720;6.912;2024-03-23T07:11:19;7.70;1.00
15257;DHT22;7731;50.720;6.912;2024-03-23T07:13:46;7.80;1.00
15257;DHT22;7731;50.720;6.912;2024-03-23T07:16:18;7.90;99.90
15257;DHT22;7731;50.720;6.912;2024-03-23T07:18:44;8.00;1.00
15257;DHT22;7731;50.720;6.912;2024-03-23T07:21:11;8.00;1.00
15257;DHT22;7731;50.720;6.912;2024-03-23T07:23:37;7.90;99.90
15257;DHT22;7731;50.720;6.912;2024-03-23T07:26:07;8.00;99.90
15257;DHT22;7731;50.720;6.912;2024-03-23T07:28:34;8.30;99.90
15257;DHT22;7731;50.720;6.912;2024-03-23T07:31:02;8.40;99.90
15257;DHT22;7731;50.720;6.912;2024-03-23T07:33:35;8.60;99.90
15257;DHT22;7731;50.720;6.912;2024-03-23T07:36:04;9.30;1.00
15257;DHT22;7731;50.720;6.912;2024-03-23T07:38:31;10.90;1.00
15257;DHT22;7731;50.720;6.912;2024-03-23T07:41:05;13.00;1.00
15257;DHT22;7731;50.720;6.912;2024-03-23T07:43:32;14.10;1.00
15257;DHT22;7731;50.720;6.912;2024-03-23T07:45:59;15.50;1.00
15257;DHT22;7731;50.720;6.912;2024-03-23T07:48:26;16.30;1.00
15257;DHT22;7731;50.720;6.912;2024-03-23T07:51:04;17.30;1.00
15257;DHT22;7731;50.720;6.912;2024-03-23T07:53:33;17.70;1.00
15257;DHT22;7731;50.720;6.912;2024-03-23T07:56:02;18.00;1.00
15257;DHT22;7731;50.720;6.912;2024-03-23T07:58:30;18.00;1.00
15257;DHT22;7731;50.720;6.912;2024-03-23T08:01:01;15.90;1.00
15257;DHT22;7731;50.720;6.912;2024-03-23T08:03:31;12.40;1.00
15257;DHT22;7731;50.720;6.912;2024-03-23T08:05:58;9.30;1.00
15257;DHT22;7731;50.720;6.912;2024-03-23T08:08:34;7.90;1.00
15257;DHT22;7731;50.720;6.912;2024-03-23T08:11:01;7.30;65.10
15257;DHT22;7731;50.720;6.912;2024-03-23T08:13:28;7.00;99.90
15257;DHT22;7731;50.720;6.912;2024-03-23T08:15:57;7.10;99.90
15257;DHT22;7731;50.720;6.912;2024-03-23T08:18:24;7.30;99.90
15257;DHT22;7731;50.720;6.912;2024-03-23T08:20:57;7.70;93.30
15257;DHT22;7731;50.720;6.912;2024-03-23T08:23:24;8.20;1.90
15257;DHT22;7731;50.720;6.912;2024-03-23T08:25:57;10.00;1.00
15257;DHT22;7731;50.720;6.912;2024-03-23T08:28:25;12.80;1.00
15257;DHT22;7731;50.720;6.912;2024-03-23T08:30:52;14.50;1.00
15257;DHT22;7731;50.720;6.912;2024-03-23T08:33:19;17.00;1.00
15257;DHT22;7731;50.720;6.912;2024-03-23T08:35:53;18.50;1.00
15257;DHT22;7731;50.720;6.912;2024-03-23T08:38:21;18.20;1.00
15257;DHT22;7731;50.720;6.912;2024-03-23T08:40:47;19.30;1.00
15257;DHT22;7731;50.720;6.912;2024-03-23T08:43:16;20.10;1.00
15257;DHT22;7731;50.720;6.912;2024-03-23T08:45:43;20.30;1.00
15257;DHT22;7731;50.720;6.912;2024-03-23T08:48:11;19.70;1.00
15257;DHT22;7731;50.720;6.912;2024-03-23T08:50:37;19.40;1.00
15257;DHT22;7731;50.720;6.912;2024-03-23T08:53:05;17.80;1.00
15257;DHT22;7731;50.720;6.912;2024-03-23T08:55:31;16.30;1.00
15257;DHT22;7731;50.720;6.912;2024-03-23T08:57:58;16.10;1.00
15257;DHT22;7731;50.720;6.912;2024-03-23T09:00:27;16.60;1.00
15257;DHT22;7731;50.720;6.912;2024-03-23T09:02:54;17.10;1.00
15257;DHT22;7731;50.720;6.912;2024-03-23T09:05:20;17.50;1.00
15257;DHT22;7731;50.720;6.912;2024-03-23T09:07:47;16.90;1.00
15257;DHT22;7731;50.720;6.912;2024-03-23T09:10:13;15.70;1.00
15257;DHT22;7731;50.720;6.912;2024-03-23T09:12:40;15.00;1.00
15257;DHT22;7731;50.720;6.912;2024-03-23T09:15:07;14.10;1.00
15257;DHT22;7731;50.720;6.912;2024-03-23T09:17:36;13.40;1.00
15257;DHT22;7731;50.720;6.912;2024-03-23T09:20:03;12.30;1.00
15257;DHT22;7731;50.720;6.912;2024-03-23T09:22:30;11.60;1.00
15257;DHT22;7731;50.720;6.912;2024-03-23T09:24:57;11.20;1.00
15257;DHT22;7731;50.720;6.912;2024-03-23T09:27:23;10.70;1.00
15257;DHT22;7731;50.720;6.912;2024-03-23T09:29:50;10.50;1.00
15257;DHT22;7731;50.720;6.912;2024-03-23T09:32:16;11.60;1.00
15257;DHT22;7731;50.720;6.912;2024-03-23T09:34:48;13.60;1.00
15257;DHT22;7731;50.720;6.912;2024-03-23T09:37:14;15.30;1.00
15257;DHT22;7731;50.720;6.912;2024-03-23T09:39:42;16.60;1.00
15257;DHT22;7731;50.720;6.912;2024-03-23T09:42:09;16.90;1.00
15257;DHT22;7731;50.720;6.912;2024-03-23T09:44:35;17.40;1.00
15257;DHT22;7731;50.720;6.912;2024-03-23T09:47:02;17.40;1.00
15257;DHT22;7731;50.720;6.912;2024-03-23T09:49:30;17.10;1.00
15257;DHT22;7731;50.720;6.912;2024-03-23T09:51:59;16.20;1.00
15257;DHT22;7731;50.720;6.912;2024-03-23T09:54:26;15.10;1.00
15257;DHT22;7731;50.720;6.912;2024-03-23T09:56:52;14.10;1.00
15257;DHT22;7731;50.720;6.912;2024-03-23T09:59:19;13.20;1.00
15257;DHT22;7731;50.720;6.912;2024-03-23T10:01:45;12.10;1.00
15257;DHT22;7731;50.720;6.912;2024-03-23T10:04:37;12.10;1.00
15257;DHT22;7731;50.720;6.912;2024-03-23T10:07:14;12.40;1.00
15257;DHT22;7731;50.720;6.912;2024-03-23T10:09:41;12.90;1.00
15257;DHT22;7731;50.720;6.912;2024-03-23T10:12:09;13.00;1.00
15257;DHT22;7731;50.720;6.912;2024-03-23T10:14:37;12.30;1.00
15257;DHT22;7731;50.720;6.912;2024-03-23T10:17:15;12.20;1.00
15257;DHT22;7731;50.720;6.912;2024-03-23T10:19:43;12.00;1.00
15257;DHT22;7731;50.720;6.912;2024-03-23T10:22:19;11.20;1.00
15257;DHT22;7731;50.720;6.912;2024-03-23T10:24:46;9.90;1.00
15257;DHT22;7731;50.720;6.912;2024-03-23T10:27:15;9.00;69.10
15257;DHT22;7731;50.720;6.912;2024-03-23T10:29:43;8.40;99.90
15257;DHT22;7731;50.720;6.912;2024-03-23T10:32:11;7.70;1.00
15257;DHT22;7731;50.720;6.912;2024-03-23T10:34:39;7.30;1.00
15257;DHT22;7731;50.720;6.912;2024-03-23T10:37:07;7.10;99.90
15257;DHT22;7731;50.720;6.912;2024-03-23T10:39:39;6.90;99.90
15257;DHT22;7731;50.720;6.912;2024-03-23T10:42:07;7.00;1.00
15257;DHT22;7731;50.720;6.912;2024-03-23T10:44:35;7.10;99.90
15257;DHT22;7731;50.720;6.912;2024-03-23T10:47:03;7.10;99.90
15257;DHT22;7731;50.720;6.912;2024-03-23T10:49:31;7.10;99.90
15257;DHT22;7731;50.720;6.912;2024-03-23T10:52:00;7.40;99.90
15257;DHT22;7731;50.720;6.912;2024-03-23T10:54:28;7.70;99.90
15257;DHT22;7731;50.720;6.912;2024-03-23T10:57:04;8.20;74.50
15257;DHT22;7731;50.720;6.912;2024-03-23T10:59:36;9.30;1.00
15257;DHT22;7731;50.720;6.912;2024-03-23T11:02:04;11.00;1.00
15257;DHT22;7731;50.720;6.912;2024-03-23T11:04:32;12.40;1.00
15257;DHT22;7731;50.720;6.912;2024-03-23T11:07:02;13.80;1.00
15257;DHT22;7731;50.720;6.912;2024-03-23T11:09:49;14.30;1.00
15257;DHT22;7731;50.720;6.912;2024-03-23T11:12:31;14.30;1.00
15257;DHT22;7731;50.720;6.912;2024-03-23T11:15:00;13.60;1.00
15257;DHT22;7731;50.720;6.912;2024-03-23T11:17:28;13.40;1.00
15257;DHT22;7731;50.720;6.912;2024-03-23T11:19:56;13.70;1.00
15257;DHT22;7731;50.720;6.912;2024-03-23T11:22:40;13.70;1.00
15257;DHT22;7731;50.720;6.912;2024-03-23T11:25:16;11.80;1.00
15257;DHT22;7731;50.720;6.912;2024-03-23T11:27:49;10.50;1.00
15257;DHT22;7731;50.720;6.912;2024-03-23T11:30:18;9.90;1.00
15257;DHT22;7731;50.720;6.912;2024-03-23T11:32:49;9.80;1.00
15257;DHT22;7731;50.720;6.912;2024-03-23T11:35:26;11.00;1.00
15257;DHT22;7731;50.720;6.912;2024-03-23T11:38:08;13.20;1.00
15257;DHT22;7731;50.720;6.912;2024-03-23T11:40:38;14.30;1.00
15257;DHT22;7731;50.720;6.912;2024-03-23T11:43:09;14.70;1.00
15257;DHT22;7731;50.720;6.912;2024-03-23T11:45:37;13.60;1.00
15257;DHT22;7731;50.720;6.912;2024-03-23T11:48:07;12.30;1.00
15257;DHT22;7731;50.720;6.912;2024-03-23T11:50:37;11.40;1.00
15257;DHT22;7731;50.720;6.912;2024-03-23T11:53:11;10.80;1.00
15257;DHT22;7731;50.720;6.912;2024-03-23T11:55:46;10.40;1.00
15257;DHT22;7731;50.720;6.912;2024-03-23T11:58:18;10.10;1.00
15257;DHT22;7731;50.720;6.912;2024-03-23T12:00:56;10.50;1.00
15257;DHT22;7731;50.720;6.912;2024-03-23T12:03:25;11.20;1.00
15257;DHT22;7731;50.720;6.912;2024-03-23T12:05:54;11.60;1.00
15257;DHT22;7731;50.720;6.912;2024-03-23T12:08:23;11.80;1.00
15257;DHT22;7731;50.720;6.912;2024-03-23T12:10:52;11.80;1.00
15257;DHT22;7731;50.720;6.912;2024-03-23T12:13:23;11.70;1.00
15257;DHT22;7731;50.720;6.912;2024-03-23T12:15:51;11.50;1.00
15257;DHT22;7731;50.720;6.912;2024-03-23T12:18:18;11.20;1.00
15257;DHT22;7731;50.720;6.912;2024-03-23T12:20:50;10.90;1.00
15257;DHT22;7731;50.720;6.912;2024-03-23T12:23:16;10.60;1.00
15257;DHT22;7731;50.720;6.912;2024-03-23T12:25:43;10.60;1.00
15257;DHT22;7731;50.720;6.912;2024-03-23T12:28:09;10.70;1.00
15257;DHT22;7731;50.720;6.912;2024-03-23T12:30:39;11.10;1.00
15257;DHT22;7731;50.720;6.912;2024-03-23T12:33:06;11.50;1.00
15257;DHT22;7731;50.720;6.912;2024-03-23T12:35:33;11.80;1.00
15257;DHT22;7731;50.720;6.912;2024-03-23T12:38:00;12.00;1.00
15257;DHT22;7731;50.720;6.912;2024-03-23T12:40:26;12.30;1.00
15257;DHT22;7731;50.720;6.912;2024-03-23T12:42:53;12.50;1.00
15257;DHT22;7731;50.720;6.912;2024-03-23T12:45:22;12.80;1.00
15257;DHT22;7731;50.720;6.912;2024-03-23T12:47:51;13.30;1.00
15257;DHT22;7731;50.720;6.912;2024-03-23T12:50:18;12.70;1.00
15257;DHT22;7731;50.720;6.912;2024-03-23T12:52:45;11.30;1.00
15257;DHT22;7731;50.720;6.912;2024-03-23T12:55:12;10.60;1.00
15257;DHT22;7731;50.720;6.912;2024-03-23T12:57:38;10.50;1.00
15257;DHT22;7731;50.720;6.912;2024-03-23T13:00:06;10.60;1.00
15257;DHT22;7731;50.720;6.912;2024-03-23T13:02:35;10.60;1.00
15257;DHT22;7731;50.720;6.912;2024-03-23T13:05:05;10.20;1.00
15257;DHT22;7731;50.720;6.912;2024-03-23T13:07:33;10.00;1.00
15257;DHT22;7731;50.720;6.912;2024-03-23T13:09:59;9.80;1.00
15257;DHT22;7731;50.720;6.912;2024-03-23T13:12:26;9.20;1.00
15257;DHT22;7731;50.720;6.912;2024-03-23T13:14:52;9.30;1.00
15257;DHT22;7731;50.720;6.912;2024-03-23T13:17:19;9.30;1.00
15257;DHT22;7731;50.720;6.912;2024-03-23T13:19:45;9.70;1.00
15257;DHT22;7731;50.720;6.912;2024-03-23T13:22:15;10.30;1.00
15257;DHT22;7731;50.720;6.912;2024-03-23T13:24:44;10.50;1.00
15257;DHT22;7731;50.720;6.912;2024-03-23T13:27:11;10.50;1.00
15257;DHT22;7731;50.720;6.912;2024-03-23T13:29:38;10.80;1.00
15257;DHT22;7731;50.720;6.912;2024-03-23T13:32:08;10.90;1.00
15257;DHT22;7731;50.720;6.912;2024-03-23T13:34:35;11.20;1.00
15257;DHT22;7731;50.720;6.912;2024-03-23T13:37:01;11.50;1.00
15257;DHT22;7731;50.720;6.912;2024-03-23T13:39:30;11.70;1.00
15257;DHT22;7731;50.720;6.912;2024-03-23T13:41:57;11.90;1.00
15257;DHT22;7731;50.720;6.912;2024-03-23T13:44:23;11.70;1.00
15257;DHT22;7731;50.720;6.912;2024-03-23T13:46:50;11.50;1.00
15257;DHT22;7731;50.720;6.912;2024-03-23T13:49:27;11.30;1.00
15257;DHT22;7731;50.720;6.912;2024-03-23T13:51:55;11.20;1.00
15257;DHT22;7731;50.720;6.912;2024-03-23T13:54:22;11.00;1.00
15257;DHT22;7731;50.720;6.912;2024-03-23T13:56:52;11.00;1.00
15257;DHT22;7731;50.720;6.912;2024-03-23T13:59:20;10.80;1.00
15257;DHT22;7731;50.720;6.912;2024-03-23T14:01:47;10.70;1.00
15257;DHT22;7731;50.720;6.912;2024-03-23T14:04:14;10.50;1.00
15257;DHT22;7731;50.720;6.912;2024-03-23T14:06:44;10.50;1.00
15257;DHT22;7731;50.720;6.912;2024-03-23T14:09:11;10.60;1.00
15257;DHT22;7731;50.720;6.912;2024-03-23T14:11:38;10.40;1.00
15257;DHT22;7731;50.720;6.912;2024-03-23T14:14:12;10.10;1.00
15257;DHT22;7731;50.720;6.912;2024-03-23T14:16:39;10.00;1.00
15257;DHT22;7731;50.720;6.912;2024-03-23T14:19:05;9.90;1.00
15257;DHT22;7731;50.720;6.912;2024-03-23T14:21:33;9.70;1.00
15257;DHT22;7731;50.720;6.912;2024-03-23T14:24:00;9.60;1.00
15257;DHT22;7731;50.720;6.912;2024-03-23T14:26:27;9.50;1.00
15257;DHT22;7731;50.720;6.912;2024-03-23T14:28:54;9.30;1.00
15257;DHT22;7731;50.720;6.912;2024-03-23T14:31:23;9.30;1.00
15257;DHT22;7731;50.720;6.912;2024-03-23T14:33:49;8.90;1.00
15257;DHT22;7731;50.720;6.912;2024-03-23T14:36:17;8.50;1.00
15257;DHT22;7731;50.720;6.912;2024-03-23T14:38:47;7.70;1.00
15257;DHT22;7731;50.720;6.912;2024-03-23T14:41:13;7.30;99.90
15257;DHT22;7731;50.720;6.912;2024-03-23T14:43:41;7.00;99.90
15257;DHT22;7731;50.720;6.912;2024-03-23T14:46:10;7.00;98.50
15257;DHT22;7731;50.720;6.912;2024-03-23T14:48:43;7.30;19.90
15257;DHT22;7731;50.720;6.912;2024-03-23T14:51:10;7.60;1.00
15257;DHT22;7731;50.720;6.912;2024-03-23T14:53:39;8.00;99.90
15257;DHT22;7731;50.720;6.912;2024-03-23T14:56:07;8.40;1.00
15257;DHT22;7731;50.720;6.912;2024-03-23T14:58:34;8.60;99.90
15257;DHT22;7731;50.720;6.912;2024-03-23T15:01:01;8.60;99.90
15257;DHT22;7731;50.720;6.912;2024-03-23T15:03:28;8.50;99.90
15257;DHT22;7731;50.720;6.912;2024-03-23T15:05:59;8.40;99.90
15257;DHT22;7731;50.720;6.912;2024-03-23T15:08:26;8.30;99.90
15257;DHT22;7731;50.720;6.912;2024-03-23T15:10:53;8.30;74.60
15257;DHT22;7731;50.720;6.912;2024-03-23T15:13:21;8.00;99.90
15257;DHT22;7731;50.720;6.912;2024-03-23T15:15:48;8.00;99.90
15257;DHT22;7731;50.720;6.912;2024-03-23T15:18:15;8.10;99.90
15257;DHT22;7731;50.720;6.912;2024-03-23T15:20:43;8.30;67.10
15257;DHT22;7731;50.720;6.912;2024-03-23T15:23:23;8.40;99.90
15257;DHT22;7731;50.720;6.912;2024-03-23T15:25:54;8.40;72.60
15257;DHT22;7731;50.720;6.912;2024-03-23T15:28:21;8.50;27.50
15257;DHT22;7731;50.720;6.912;2024-03-23T15:30:49;8.70;1.00
15257;DHT22;7731;50.720;6.912;2024-03-23T15:33:15;8.70;1.00
15257;DHT22;7731;50.720;6.912;2024-03-23T15:35:42;8.60;1.00
15257;DHT22;7731;50.720;6.912;2024-03-23T15:38:08;8.50;1.00
15257;DHT22;7731;50.720;6.912;2024-03-23T15:40:38;8.50;1.00
15257;DHT22;7731;50.720;6.912;2024-03-23T15:43:04;8.50;1.00
15257;DHT22;7731;50.720;6.912;2024-03-23T15:45:31;8.40;1.00
15257;DHT22;7731;50.720;6.912;2024-03-23T15:47:58;8.30;1.00
15257;DHT22;7731;50.720;6.912;2024-03-23T15:50:24;8.30;1.00
15257;DHT22;7731;50.720;6.912;2024-03-23T15:52:51;8.20;99.90
15257;DHT22;7731;50.720;6.912;2024-03-23T15:55:17;8.30;1.00
15257;DHT22;7731;50.720;6.912;2024-03-23T15:57:46;8.20;99.90
15257;DHT22;7731;50.720;6.912;2024-03-23T16:00:13;8.10;99.90
15257;DHT22;7731;50.720;6.912;2024-03-23T16:02:40;8.00;1.00
15257;DHT22;7731;50.720;6.912;2024-03-23T16:05:07;7.90;1.00
15257;DHT22;7731;50.720;6.912;2024-03-23T16:07:34;7.60;99.90
15257;DHT22;7731;50.720;6.912;2024-03-23T16:10:01;7.60;99.90
15257;DHT22;7731;50.720;6.912;2024-03-23T16:12:27;7.40;1.00
15257;DHT22;7731;50.720;6.912;2024-03-23T16:14:56;7.20;99.90
15257;DHT22;7731;50.720;6.912;2024-03-23T16:17:23;7.10;1.00
15257;DHT22;7731;50.720;6.912;2024-03-23T16:19:49;7.10;99.90
15257;DHT22;7731;50.720;6.912;2024-03-23T16:22:16;7.10;1.00
15257;DHT22;7731;50.720;6.912;2024-03-23T16:24:44;7.40;99.90
15257;DHT22;7731;50.720;6.912;2024-03-23T16:27:10;7.50;99.90
15257;DHT22;7731;50.720;6.912;2024-03-23T16:29:37;7.50;1.00
15257;DHT22;7731;50.720;6.912;2024-03-23T16:32:06;7.10;85.90
15257;DHT22;7731;50.720;6.912;2024-03-23T16:34:33;6.40;99.90
15257;DHT22;7731;50.720;6.912;2024-03-23T16:36:59;6.00;6.90
15257;DHT22;7731;50.720;6.912;2024-03-23T16:39:26;5.60;1.00
15257;DHT22;7731;50.720;6.912;2024-03-23T16:41:52;5.70;99.90
15257;DHT22;7731;50.720;6.912;2024-03-23T16:44:19;5.60;99.90
15257;DHT22;7731;50.720;6.912;2024-03-23T16:46:45;5.60;99.90
15257;DHT22;7731;50.720;6.912;2024-03-23T16:49:14;5.60;99.90
15257;DHT22;7731;50.720;6.912;2024-03-23T16:51:41;5.70;99.90
15257;DHT22;7731;50.720;6.912;2024-03-23T16:54:07;5.60;99.90
15257;DHT22;7731;50.720;6.912;2024-03-23T16:56:34;5.80;99.90
15257;DHT22;7731;50.720;6.912;2024-03-23T16:59:00;6.00;99.90
15257;DHT22;7731;50.720;6.912;2024-03-23T17:01:27;6.20;99.90
15257;DHT22;7731;50.720;6.912;2024-03-23T17:03:53;6.30;99.90